createdAt,value
2018-08-07T00:00:36.973Z,12.00
2018-08-07T00:03:05.697Z,11.90
2018-08-07T00:05:33.126Z,11.90
2018-08-07T00:08:00.587Z,11.90
2018-08-07T00:10:28.091Z,12.00
2018-08-07T00:12:55.596Z,11.90
2018-08-07T00:15:27.071Z,11.90
2018-08-07T00:17:54.526Z,11.80
2018-08-07T00:20:22.009Z,11.80
2018-08-07T00:22:49.444Z,11.90
2018-08-07T00:25:16.934Z,11.90
2018-08-07T00:27:44.553Z,11.80
2018-08-07T00:30:13.344Z,11.70
2018-08-07T00:32:40.989Z,11.50
2018-08-07T00:35:10.792Z,11.40
2018-08-07T00:37:38.616Z,11.40
2018-08-07T00:40:08.178Z,11.40
2018-08-07T00:42:35.693Z,11.40
2018-08-07T00:45:03.349Z,11.30
2018-08-07T00:47:30.779Z,11.20
2018-08-07T00:49:58.228Z,11.20
2018-08-07T00:52:25.668Z,11.10
2018-08-07T00:54:53.179Z,10.90
2018-08-07T00:57:20.829Z,10.80
2018-08-07T00:59:48.272Z,10.80
2018-08-07T01:02:15.701Z,10.80
2018-08-07T01:04:43.156Z,10.80
2018-08-07T01:07:10.580Z,10.80
2018-08-07T01:09:38.025Z,10.70
2018-08-07T01:12:05.820Z,10.80
2018-08-07T01:14:33.212Z,10.80
2018-08-07T01:17:00.685Z,10.70
2018-08-07T01:21:55.576Z,10.70
2018-08-07T01:24:23.056Z,10.70
2018-08-07T01:26:50.513Z,10.70
2018-08-07T01:29:17.984Z,10.70
2018-08-07T01:31:45.409Z,10.80
2018-08-07T01:34:12.808Z,10.70
2018-08-07T01:36:40.236Z,10.70
2018-08-07T01:39:09.037Z,10.60
2018-08-07T01:41:36.525Z,10.60
2018-08-07T01:44:04.213Z,10.60
2018-08-07T01:46:31.629Z,10.60
2018-08-07T01:48:59.077Z,10.60
2018-08-07T01:51:26.501Z,10.70
2018-08-07T01:53:53.937Z,10.70
2018-08-07T01:56:21.389Z,10.70
2018-08-07T01:58:48.850Z,10.80
2018-08-07T02:01:16.280Z,10.90
2018-08-07T02:03:43.709Z,11.00
2018-08-07T02:06:11.149Z,11.00
2018-08-07T02:08:38.616Z,11.10
2018-08-07T02:11:06.552Z,11.20
2018-08-07T02:13:34.077Z,11.40
2018-08-07T02:16:01.537Z,11.50
2018-08-07T02:18:29.028Z,11.50
2018-08-07T02:20:56.455Z,11.40
2018-08-07T02:23:23.905Z,11.40
2018-08-07T02:25:51.341Z,11.50
2018-08-07T02:28:18.769Z,11.40
2018-08-07T02:30:46.209Z,11.30
2018-08-07T02:33:13.636Z,11.20
2018-08-07T02:38:08.492Z,10.90
2018-08-07T02:40:35.940Z,10.80
2018-08-07T02:43:03.437Z,10.80
2018-08-07T02:45:30.922Z,10.80
2018-08-07T02:47:58.341Z,10.70
2018-08-07T02:50:25.774Z,10.70
2018-08-07T02:52:53.205Z,10.60
2018-08-07T02:55:20.620Z,10.50
2018-08-07T02:57:48.060Z,10.40
2018-08-07T03:00:19.754Z,10.40
2018-08-07T03:02:47.413Z,10.40
2018-08-07T03:05:15.094Z,10.40
2018-08-07T03:07:42.584Z,10.40
2018-08-07T03:10:10.329Z,10.40
2018-08-07T03:12:37.946Z,10.40
2018-08-07T03:15:08.787Z,10.50
2018-08-07T03:17:36.341Z,10.70
2018-08-07T03:20:05.265Z,10.80
2018-08-07T03:22:32.685Z,10.80
2018-08-07T03:25:00.081Z,10.90
2018-08-07T03:27:27.505Z,10.90
2018-08-07T03:29:54.941Z,11.00
2018-08-07T03:32:22.395Z,11.00
2018-08-07T03:34:49.907Z,11.10
2018-08-07T03:39:44.789Z,11.10
2018-08-07T03:42:12.212Z,11.30
2018-08-07T03:44:39.610Z,11.40
2018-08-07T03:47:07.094Z,11.60
2018-08-07T03:49:34.541Z,11.80
2018-08-07T03:52:01.961Z,11.80
2018-08-07T03:54:29.416Z,11.80
2018-08-07T03:56:56.905Z,11.70
2018-08-07T03:59:24.353Z,11.80
2018-08-07T04:01:51.784Z,11.80
2018-08-07T04:06:46.612Z,11.70
2018-08-07T04:09:14.585Z,11.80
2018-08-07T04:11:42.476Z,11.80
2018-08-07T04:14:10.945Z,11.90
2018-08-07T04:17:09.674Z,11.90
2018-08-07T04:19:37.096Z,12.20
2018-08-07T04:22:04.736Z,12.70
2018-08-07T04:24:32.174Z,13.20
2018-08-07T04:26:59.602Z,13.40
2018-08-07T04:29:27.021Z,13.50
2018-08-07T04:31:54.446Z,13.60
2018-08-07T04:34:21.905Z,13.60
2018-08-07T04:36:49.338Z,13.40
2018-08-07T04:39:17.004Z,13.20
2018-08-07T04:41:44.430Z,13.30
2018-08-07T04:44:11.876Z,13.30
2018-08-07T04:46:39.329Z,13.30
2018-08-07T04:49:06.815Z,13.70
2018-08-07T04:51:34.641Z,14.60
2018-08-07T04:54:02.060Z,15.80
2018-08-07T04:56:29.509Z,16.10
2018-08-07T04:58:56.932Z,16.60
2018-08-07T05:01:24.377Z,16.90
2018-08-07T05:03:51.784Z,16.90
2018-08-07T05:06:19.242Z,16.90
2018-08-07T05:08:46.689Z,17.00
2018-08-07T05:11:14.087Z,16.80
2018-08-07T05:13:41.569Z,16.80
2018-08-07T05:16:09.005Z,16.70
2018-08-07T05:18:36.452Z,16.60
2018-08-07T05:21:03.862Z,16.80
2018-08-07T05:23:31.313Z,17.30
2018-08-07T05:25:58.757Z,18.80
2018-08-07T05:28:26.154Z,19.90
2018-08-07T05:30:54.532Z,21.10
2018-08-07T05:33:22.009Z,22.70
2018-08-07T05:35:49.468Z,24.10
2018-08-07T05:38:16.864Z,25.20
2018-08-07T05:40:44.349Z,26.20
2018-08-07T05:43:11.758Z,27.30
2018-08-07T05:45:39.187Z,27.90
2018-08-07T05:48:06.633Z,28.80
2018-08-07T05:50:34.167Z,29.40
2018-08-07T05:53:01.582Z,30.30
2018-08-07T05:55:29.011Z,30.40
2018-08-07T05:57:56.538Z,30.50
2018-08-07T06:00:23.974Z,29.60
2018-08-07T06:02:51.432Z,28.40
2018-08-07T06:05:18.948Z,27.70
2018-08-07T06:07:47.050Z,28.60
2018-08-07T06:10:14.457Z,29.70
2018-08-07T06:12:42.086Z,30.60
2018-08-07T06:15:12.187Z,30.80
2018-08-07T06:17:40.461Z,31.40
2018-08-07T06:20:08.840Z,31.40
2018-08-07T06:22:36.712Z,31.70
2018-08-07T06:25:04.889Z,32.00
2018-08-07T06:27:32.648Z,31.10
2018-08-07T06:30:00.155Z,30.50
2018-08-07T06:32:27.600Z,30.50
2018-08-07T06:34:55.092Z,29.80
2018-08-07T06:37:22.553Z,29.80
2018-08-07T06:39:49.990Z,30.00
2018-08-07T06:42:18.125Z,30.10
2018-08-07T06:44:45.888Z,29.50
2018-08-07T06:47:13.317Z,28.80
2018-08-07T06:49:40.743Z,28.30
2018-08-07T06:52:08.193Z,27.70
2018-08-07T06:54:35.673Z,26.90
2018-08-07T06:57:03.476Z,26.90
2018-08-07T06:59:31.000Z,26.60
2018-08-07T07:01:58.526Z,26.20
2018-08-07T07:04:25.973Z,25.90
2018-08-07T07:06:53.390Z,25.70
2018-08-07T07:09:20.919Z,25.30
2018-08-07T07:11:48.325Z,25.00
2018-08-07T07:14:15.771Z,24.70
2018-08-07T07:16:43.226Z,24.50
2018-08-07T07:19:10.674Z,23.80
2018-08-07T07:21:38.112Z,23.30
2018-08-07T07:26:33.357Z,22.60
2018-08-07T07:29:00.778Z,22.50
2018-08-07T07:31:28.214Z,22.30
2018-08-07T07:33:55.608Z,22.40
2018-08-07T07:36:23.059Z,22.60
2018-08-07T07:38:50.723Z,23.10
2018-08-07T07:41:18.125Z,23.40
2018-08-07T07:43:45.578Z,23.60
2018-08-07T07:46:13.017Z,23.80
2018-08-07T07:48:40.450Z,23.90
2018-08-07T07:54:12.389Z,23.90
2018-08-07T08:05:31.861Z,22.70
2018-08-07T08:10:09.609Z,22.60
2018-08-07T08:12:39.219Z,22.40
2018-08-07T08:17:35.601Z,22.20
2018-08-07T08:20:21.662Z,21.90
2018-08-07T08:22:52.168Z,21.90
2018-08-07T08:25:24.567Z,22.10
2018-08-07T08:27:53.710Z,22.00
2018-08-07T08:33:08.713Z,22.30
2018-08-07T08:35:43.902Z,22.40
2018-08-07T08:39:47.836Z,22.50
2018-08-07T08:42:17.704Z,22.50
2018-08-07T08:46:59.384Z,22.40
2018-08-07T08:52:23.370Z,22.40
2018-08-07T08:54:52.777Z,22.40
2018-08-07T08:57:21.981Z,22.70
2018-08-07T08:59:50.850Z,22.80
2018-08-07T09:02:20.277Z,22.80
2018-08-07T09:04:49.499Z,22.80
2018-08-07T09:07:22.072Z,22.90
2018-08-07T09:09:50.848Z,22.90
2018-08-07T09:15:27.830Z,23.00
2018-08-07T09:17:57.012Z,23.20
2018-08-07T09:20:29.814Z,23.30
2018-08-07T09:22:59.020Z,23.20
2018-08-07T09:25:31.728Z,23.30
2018-08-07T09:36:57.939Z,23.30
2018-08-07T09:39:28.069Z,23.70
2018-08-07T09:41:57.064Z,23.80
2018-08-07T09:44:33.493Z,23.90
2018-08-07T09:47:03.753Z,24.10
2018-08-07T09:49:32.395Z,24.30
2018-08-07T09:52:04.073Z,24.50
2018-08-07T09:54:43.331Z,24.50
2018-08-07T09:57:12.391Z,24.40
2018-08-07T09:59:41.455Z,24.60
2018-08-07T10:03:14.005Z,24.60
2018-08-07T10:06:02.203Z,24.60
2018-08-07T10:08:44.197Z,24.70
2018-08-07T10:11:26.444Z,24.80
2018-08-07T10:13:56.617Z,25.00
2018-08-07T10:16:25.719Z,25.20
2018-08-07T10:18:55.429Z,25.30
2018-08-07T10:21:25.450Z,25.30
2018-08-07T10:23:54.121Z,25.10
2018-08-07T10:26:43.361Z,24.80
2018-08-07T10:29:29.857Z,24.80
2018-08-07T10:31:59.505Z,25.00
2018-08-07T10:34:28.603Z,25.00
2018-08-07T10:36:58.725Z,25.10
2018-08-07T10:39:28.540Z,25.40
2018-08-07T10:41:58.764Z,25.60
2018-08-07T10:44:28.044Z,25.70
2018-08-07T10:55:27.706Z,26.00
2018-08-07T11:02:17.241Z,26.80
2018-08-07T11:04:46.350Z,26.80
2018-08-07T11:20:36.707Z,27.30
2018-08-07T12:16:12.478Z,29.40
2018-08-07T12:18:41.649Z,29.60
2018-08-07T12:37:11.244Z,29.80
2018-08-07T12:40:12.748Z,29.70
2018-08-07T12:42:54.139Z,28.30
2018-08-07T12:45:29.442Z,28.10
2018-08-07T12:57:40.470Z,28.30
2018-08-07T13:00:17.456Z,28.10
2018-08-07T13:02:46.850Z,28.30
2018-08-07T13:05:20.005Z,28.60
2018-08-07T13:10:45.981Z,28.60
2018-08-07T13:22:27.873Z,29.00
2018-08-07T13:28:00.557Z,28.90
2018-08-07T13:30:29.554Z,28.90
2018-08-07T13:33:04.052Z,29.00
2018-08-07T13:35:33.073Z,29.00
2018-08-07T13:38:19.670Z,29.10
2018-08-07T13:46:01.907Z,29.50
2018-08-07T13:54:18.699Z,29.60
2018-08-07T14:01:56.705Z,29.70
2018-08-07T14:04:33.141Z,29.50
2018-08-07T14:07:02.136Z,29.50
2018-08-07T14:09:31.339Z,29.60
2018-08-07T15:01:26.168Z,29.60
2018-08-07T15:09:54.931Z,28.90
2018-08-07T15:12:24.485Z,28.90
2018-08-07T15:20:09.760Z,28.80
2018-08-07T16:08:25.448Z,28.00
2018-08-07T16:10:58.865Z,28.40
2018-08-07T16:13:34.212Z,28.50
2018-08-07T16:16:03.101Z,28.40
2018-08-07T16:43:25.954Z,28.40
2018-08-07T16:45:57.710Z,27.50
2018-08-07T16:51:05.628Z,27.30
2018-08-07T16:53:38.821Z,27.20
2018-08-07T17:13:30.281Z,26.80
2018-08-07T17:16:04.088Z,26.20
2018-08-07T17:18:43.829Z,26.20
2018-08-07T17:21:27.557Z,26.20
2018-08-07T17:24:13.648Z,26.40
2018-08-07T17:26:43.667Z,26.60
2018-08-07T17:29:15.330Z,26.70
2018-08-07T17:31:44.693Z,26.60
2018-08-07T17:34:16.542Z,26.70
2018-08-07T17:47:22.911Z,26.50
2018-08-07T17:59:04.003Z,26.20
2018-08-07T18:01:36.681Z,26.00
2018-08-07T18:10:17.247Z,25.80
2018-08-07T18:13:18.863Z,25.60
2018-08-07T18:18:56.450Z,25.10
2018-08-07T18:21:26.301Z,24.90
2018-08-07T18:23:55.424Z,24.70
2018-08-07T18:26:26.846Z,24.60
2018-08-07T18:28:56.974Z,24.40
2018-08-07T18:31:25.757Z,24.30
2018-08-07T18:33:55.578Z,24.20
2018-08-07T18:36:28.463Z,24.10
2018-08-07T18:38:58.239Z,24.00
2018-08-07T18:41:28.052Z,23.80
2018-08-07T18:43:58.192Z,23.60
2018-08-07T18:46:29.031Z,23.50
2018-08-07T18:48:57.866Z,23.30
2018-08-07T18:51:27.582Z,23.00
2018-08-07T18:58:20.437Z,22.90
2018-08-07T19:00:49.701Z,22.70
2018-08-07T19:03:21.943Z,22.50
2018-08-07T19:05:51.736Z,22.30
2018-08-07T19:08:20.959Z,22.10
2018-08-07T19:10:50.838Z,21.90
2018-08-07T19:13:21.596Z,21.70
2018-08-07T19:15:50.236Z,21.60
2018-08-07T19:18:19.448Z,21.40
2018-08-07T19:20:47.785Z,21.20
2018-08-07T19:23:16.370Z,21.00
2018-08-07T19:25:47.300Z,20.80
2018-08-07T19:28:16.666Z,20.60
2018-08-07T19:30:45.228Z,20.50
2018-08-07T19:33:13.727Z,20.30
2018-08-07T19:35:42.377Z,20.10
2018-08-07T19:38:11.376Z,19.90
2018-08-07T19:40:39.857Z,19.70
2018-08-07T19:43:19.416Z,19.50
2018-08-07T19:45:47.970Z,19.40
2018-08-07T19:48:22.402Z,19.40
2018-08-07T19:50:51.500Z,19.50
2018-08-07T19:53:20.118Z,19.50
2018-08-07T19:55:48.317Z,19.60
2018-08-07T19:58:16.150Z,19.50
2018-08-07T20:00:44.292Z,19.40
2018-08-07T20:03:12.231Z,19.50
2018-08-07T20:05:40.671Z,19.40
2018-08-07T20:08:08.881Z,19.30
2018-08-07T20:10:36.824Z,19.10
2018-08-07T20:13:05.476Z,19.00
2018-08-07T20:15:33.542Z,18.90
2018-08-07T20:18:01.969Z,18.70
2018-08-07T20:20:30.428Z,18.60
2018-08-07T20:22:58.696Z,18.60
2018-08-07T20:25:27.219Z,18.50
2018-08-07T20:27:55.602Z,18.40
2018-08-07T20:30:24.576Z,18.40
2018-08-07T20:32:55.247Z,18.30
2018-08-07T20:35:23.702Z,18.20
2018-08-07T20:37:52.053Z,18.10
2018-08-07T20:40:24.598Z,18.00
2018-08-07T20:42:54.054Z,17.80
2018-08-07T20:45:22.521Z,17.70
2018-08-07T20:47:50.962Z,17.60
2018-08-07T20:50:22.453Z,17.60
2018-08-07T20:52:51.093Z,17.40
2018-08-07T20:55:19.350Z,17.30
2018-08-07T20:57:47.111Z,17.20
2018-08-07T21:00:18.507Z,17.10
2018-08-07T21:02:46.600Z,17.00
2018-08-07T21:05:14.402Z,16.90
2018-08-07T21:07:42.386Z,16.80
2018-08-07T21:10:12.323Z,16.70
2018-08-07T21:12:41.190Z,16.70
2018-08-07T21:15:09.912Z,16.60
2018-08-07T21:17:37.834Z,16.40
2018-08-07T21:20:07.315Z,16.20
2018-08-07T21:22:34.911Z,16.10
2018-08-07T21:25:02.874Z,16.10
2018-08-07T21:27:30.268Z,15.90
2018-08-07T21:29:57.713Z,15.80
2018-08-07T21:32:25.140Z,15.70
2018-08-07T21:34:52.620Z,15.50
2018-08-07T21:37:20.093Z,15.50
2018-08-07T21:39:47.468Z,15.40
2018-08-07T21:42:14.946Z,15.20
2018-08-07T21:44:42.394Z,15.00
2018-08-07T21:47:09.841Z,14.90
2018-08-07T21:49:37.278Z,14.70
2018-08-07T21:52:05.546Z,14.60
2018-08-07T21:54:32.997Z,14.50
2018-08-07T21:57:00.485Z,14.50
2018-08-07T21:59:27.916Z,14.40
2018-08-07T22:01:55.341Z,14.30
2018-08-07T22:04:22.777Z,14.30
2018-08-07T22:06:50.212Z,14.20
2018-08-07T22:09:17.624Z,14.10
2018-08-07T22:11:45.082Z,14.10
2018-08-07T22:14:12.496Z,14.00
2018-08-07T22:16:39.930Z,14.10
2018-08-07T22:19:07.374Z,14.00
2018-08-07T22:21:34.809Z,13.80
2018-08-07T22:24:02.240Z,13.70
2018-08-07T22:26:29.616Z,13.60
2018-08-07T22:28:57.070Z,13.60
2018-08-07T22:31:24.518Z,13.50
2018-08-07T22:33:52.037Z,13.50
2018-08-07T22:36:19.477Z,13.40
2018-08-07T22:38:46.845Z,13.40
2018-08-07T22:41:14.369Z,13.40
2018-08-07T22:43:41.777Z,13.30
2018-08-07T22:46:09.236Z,13.30
2018-08-07T22:48:36.637Z,13.30
2018-08-07T22:51:04.069Z,13.30
2018-08-07T22:53:31.497Z,13.30
2018-08-07T22:55:58.962Z,13.30
2018-08-07T22:58:26.406Z,13.20
2018-08-07T23:00:53.858Z,13.20
2018-08-07T23:03:21.240Z,13.10
2018-08-07T23:05:48.670Z,13.10
2018-08-07T23:08:16.146Z,13.10
2018-08-07T23:10:43.543Z,13.20
2018-08-07T23:13:11.002Z,13.20
2018-08-07T23:15:38.437Z,13.10
2018-08-07T23:18:05.884Z,13.10
2018-08-07T23:20:33.337Z,13.10
2018-08-07T23:23:00.740Z,13.10
2018-08-07T23:25:28.171Z,13.00
2018-08-07T23:27:55.601Z,12.90
2018-08-07T23:30:23.160Z,13.00
2018-08-07T23:32:50.565Z,13.00
2018-08-07T23:35:18.138Z,13.10
2018-08-07T23:37:45.596Z,13.00
2018-08-07T23:40:13.485Z,12.90
2018-08-07T23:42:41.438Z,12.80
2018-08-07T23:45:10.380Z,12.80
2018-08-07T23:47:37.902Z,12.70
2018-08-07T23:50:05.341Z,12.60
2018-08-07T23:52:32.805Z,12.60
2018-08-07T23:55:00.500Z,12.60
2018-08-07T23:57:27.908Z,12.50
2018-08-07T23:59:55.351Z,12.30
